Time;durP1;ratioP1;P1;durP2;ratioP2;P2;SDS_P1;SDS_P2;PMS_P1;PMS_P2;Temp;Humidity;BMP_temperature;BMP_pressure;BME280_temperature;BME280_humidity;BME280_pressure;Samples;Min_cycle;Max_cycle;Signal;HPM_P1;HPM_P2
2021/12/17 00:00:58;;;;;;;35.55;11.35;;;8.00;99.90;;;;;;5071362;28;20398;-43
2021/12/17 00:06:47;;;;;;;38.25;11.80;;;8.00;99.90;;;;;;5054688;28;20398;-45
2021/12/17 00:09:13;;;;;;;44.80;12.38;;;8.00;99.90;;;;;;5050667;28;20045;-47
2021/12/17 00:11:39;;;;;;;48.75;13.35;;;8.00;99.90;;;;;;5060585;28;20049;-48
2021/12/17 00:14:06;;;;;;;44.10;11.75;;;8.00;99.90;;;;;;5053050;28;20041;-44
2021/12/17 00:16:37;;;;;;;46.05;13.10;;;8.00;99.90;;;;;;5045093;28;20045;-46
2021/12/17 00:48:54;;;;;;;10.60;4.20;;;7.80;99.90;;;;;;5086247;28;20044;-44
2021/12/17 00:54:20;;;;;;;14.02;3.63;;;7.80;99.90;;;;;;5065053;28;20162;-44
2021/12/17 00:56:52;;;;;;;11.85;3.63;;;7.80;99.90;;;;;;5071066;28;20381;-46
2021/12/17 00:59:18;;;;;;;7.13;3.35;;;7.80;99.90;;;;;;5056802;28;20102;-45
2021/12/17 01:01:45;;;;;;;10.70;3.83;;;7.80;99.90;;;;;;5061925;28;20124;-44
2021/12/17 01:04:12;;;;;;;5.85;3.45;;;7.80;99.90;;;;;;5052276;28;20057;-44
2021/12/17 01:06:38;;;;;;;11.13;3.90;;;7.80;99.90;;;;;;5070118;28;20132;-43
2021/12/17 01:09:07;;;;;;;7.90;3.63;;;7.70;99.90;;;;;;5058702;28;20120;-45
2021/12/17 01:11:34;;;;;;;10.85;4.05;;;7.70;99.90;;;;;;5051964;28;20052;-46
2021/12/17 01:14:00;;;;;;;8.87;4.17;;;7.70;99.90;;;;;;5070196;28;20490;-46
2021/12/17 01:16:27;;;;;;;10.15;4.13;;;7.70;99.90;;;;;;5061096;28;20047;-44
2021/12/17 01:35:23;;;;;;;12.07;4.10;;;7.50;99.90;;;;;;5064999;28;20053;-46
2021/12/17 01:43:12;;;;;;;10.57;4.05;;;7.50;99.90;;;;;;5049821;28;20123;-45
2021/12/17 01:45:40;;;;;;;10.73;3.70;;;7.50;99.90;;;;;;5050283;28;20051;-44
2021/12/17 01:48:13;;;;;;;8.73;3.05;;;7.50;99.90;;;;;;5059143;28;20521;-44
2021/12/17 02:01:36;;;;;;;7.65;3.22;;;7.50;99.90;;;;;;5049905;28;20519;-45
2021/12/17 02:04:03;;;;;;;8.18;2.95;;;7.60;99.90;;;;;;5031175;28;20092;-44
2021/12/17 02:06:31;;;;;;;5.90;2.95;;;7.60;99.90;;;;;;5066718;28;20052;-47
2021/12/17 02:08:59;;;;;;;6.78;2.50;;;7.60;99.90;;;;;;5049730;28;20146;-44
2021/12/17 02:19:47;;;;;;;6.25;2.75;;;7.60;99.90;;;;;;5048103;28;20163;-46
2021/12/17 02:23:04;;;;;;;6.75;3.28;;;7.60;99.90;;;;;;5048594;28;20041;-44
2021/12/17 02:33:39;;;;;;;6.03;3.10;;;7.60;99.90;;;;;;5049094;28;20434;-45
2021/12/17 02:36:06;;;;;;;5.10;2.83;;;7.50;99.90;;;;;;5048940;28;20044;-43
2021/12/17 02:38:39;;;;;;;5.53;3.20;;;7.50;99.90;;;;;;5048971;28;20090;-44
2021/12/17 02:46:37;;;;;;;6.03;2.92;;;7.30;99.90;;;;;;5047768;28;20394;-44
2021/12/17 02:49:03;;;;;;;6.97;2.83;;;7.30;99.90;;;;;;5042993;28;20036;-46
2021/12/17 02:51:29;;;;;;;5.63;3.00;;;7.20;99.90;;;;;;5069581;28;20045;-44
2021/12/17 02:53:56;;;;;;;6.10;3.35;;;7.20;99.90;;;;;;5062288;28;20037;-44
2021/12/17 02:56:22;;;;;;;7.00;3.33;;;7.30;99.90;;;;;;5062854;28;20120;-44
2021/12/17 02:58:48;;;;;;;5.53;3.35;;;7.30;99.90;;;;;;5048055;28;20044;-45
2021/12/17 03:01:15;;;;;;;5.72;3.03;;;7.30;99.90;;;;;;5068804;28;20033;-44
2021/12/17 03:03:44;;;;;;;6.03;3.70;;;7.30;99.90;;;;;;5072748;28;20041;-45
2021/12/17 03:06:10;;;;;;;5.75;3.50;;;7.40;99.90;;;;;;5054290;28;20395;-45
2021/12/17 03:08:37;;;;;;;6.50;3.13;;;7.40;99.90;;;;;;5070640;28;20045;-45
2021/12/17 03:11:03;;;;;;;5.38;2.97;;;7.40;99.90;;;;;;5059181;28;20079;-44
2021/12/17 03:13:32;;;;;;;6.22;3.22;;;7.50;99.90;;;;;;5054722;28;20552;-44
2021/12/17 03:16:09;;;;;;;5.35;2.92;;;7.50;99.90;;;;;;5064796;28;20150;-47
2021/12/17 03:18:58;;;;;;;5.15;3.22;;;7.50;99.90;;;;;;5041505;28;20076;-45
2021/12/17 03:24:11;;;;;;;7.50;3.67;;;7.50;99.90;;;;;;5060252;28;20037;-46
2021/12/17 03:26:37;;;;;;;5.65;2.92;;;7.50;99.90;;;;;;5039901;28;20048;-44
2021/12/17 03:29:07;;;;;;;5.63;3.20;;;7.50;99.90;;;;;;5050971;28;20045;-43
2021/12/17 03:31:33;;;;;;;5.18;3.40;;;7.50;99.90;;;;;;5052137;28;20044;-45
2021/12/17 03:34:17;;;;;;;6.40;3.10;;;7.60;99.90;;;;;;5051090;28;20040;-45
2021/12/17 03:36:44;;;;;;;6.03;2.90;;;7.60;99.90;;;;;;5051032;28;20329;-45
2021/12/17 03:39:10;;;;;;;8.30;3.40;;;7.60;99.90;;;;;;5052477;28;20051;-45
2021/12/17 03:41:38;;;;;;;7.95;3.22;;;7.60;99.90;;;;;;5050527;28;20049;-43
2021/12/17 03:44:05;;;;;;;5.63;3.03;;;7.70;99.90;;;;;;5052385;28;20045;-45
2021/12/17 03:46:34;;;;;;;;;;;7.60;99.90;;;;;;5050947;28;20045;-44
2021/12/17 03:49:02;;;;;;;6.80;3.00;;;7.60;99.90;;;;;;5084099;28;19924;-44
2021/12/17 03:51:28;;;;;;;5.53;2.95;;;7.70;99.90;;;;;;5055813;28;20047;-44
2021/12/17 03:53:58;;;;;;;5.85;3.03;;;7.70;99.90;;;;;;5070851;28;20127;-43
2021/12/17 03:56:25;;;;;;;8.63;3.40;;;7.70;99.90;;;;;;5071763;28;20603;-44
2021/12/17 03:58:53;;;;;;;6.70;3.60;;;7.70;99.90;;;;;;5059289;28;20041;-45
2021/12/17 04:01:19;;;;;;;5.45;3.30;;;7.70;99.90;;;;;;5049955;28;20545;-43
2021/12/17 04:03:46;;;;;;;6.03;3.30;;;7.70;99.90;;;;;;5050000;28;20127;-44
2021/12/17 04:06:14;;;;;;;5.68;2.90;;;7.70;99.90;;;;;;5064870;28;20049;-44
2021/12/17 04:08:40;;;;;;;6.30;3.27;;;7.70;99.90;;;;;;5050698;28;20045;-47
2021/12/17 04:11:09;;;;;;;5.78;3.35;;;7.70;99.90;;;;;;5071911;28;20039;-44
2021/12/17 04:13:38;;;;;;;7.47;3.45;;;7.70;99.90;;;;;;5071874;28;20053;-44
2021/12/17 04:16:09;;;;;;;6.72;3.28;;;7.70;99.90;;;;;;5059837;28;20466;-46
2021/12/17 04:18:40;;;;;;;5.25;3.20;;;7.70;99.90;;;;;;5050048;28;20091;-43
2021/12/17 04:21:13;;;;;;;6.00;2.88;;;7.70;99.90;;;;;;5049820;28;20053;-43
2021/12/17 04:23:41;;;;;;;4.95;3.10;;;7.70;99.90;;;;;;5066457;28;20032;-44
2021/12/17 04:26:07;;;;;;;5.75;3.03;;;7.80;99.90;;;;;;5071061;28;20044;-43
2021/12/17 04:28:36;;;;;;;5.47;3.20;;;7.80;99.90;;;;;;5069023;28;20038;-45
2021/12/17 04:31:02;;;;;;;6.32;3.13;;;7.70;99.90;;;;;;5059449;28;20513;-44
2021/12/17 04:33:28;;;;;;;6.32;3.08;;;7.80;99.90;;;;;;5048699;28;20124;-47
2021/12/17 04:35:54;;;;;;;6.60;3.72;;;7.80;99.90;;;;;;5039549;28;20037;-46
2021/12/17 04:38:22;;;;;;;7.97;4.13;;;7.80;99.90;;;;;;5087414;28;20040;-45
2021/12/17 04:40:51;;;;;;;7.97;3.88;;;7.80;99.90;;;;;;5068988;28;20424;-44
2021/12/17 04:43:30;;;;;;;8.90;4.18;;;7.80;99.90;;;;;;5069908;28;20041;-43
2021/12/17 04:46:22;;;;;;;6.85;3.83;;;7.80;99.90;;;;;;5069757;28;20041;-47
2021/12/17 05:00:07;;;;;;;8.15;4.50;;;7.70;99.90;;;;;;5064912;28;20548;-45
2021/12/17 05:02:39;;;;;;;9.25;4.90;;;7.70;99.90;;;;;;5047832;28;20032;-45
2021/12/17 05:05:08;;;;;;;9.95;4.90;;;7.80;99.90;;;;;;5052997;28;20110;-46
2021/12/17 05:07:38;;;;;;;16.15;5.55;;;7.70;99.90;;;;;;5066339;28;20032;-45
2021/12/17 05:18:23;;;;;;;11.48;5.55;;;7.80;99.90;;;;;;5048044;28;20049;-43
2021/12/17 05:20:56;;;;;;;11.48;5.80;;;7.70;99.90;;;;;;5048388;28;20143;-44
2021/12/17 05:23:30;;;;;;;11.10;5.80;;;7.80;99.90;;;;;;5050459;28;20430;-46
2021/12/17 05:25:56;;;;;;;12.85;5.65;;;7.80;99.90;;;;;;5091926;28;20044;-46
2021/12/17 05:28:23;;;;;;;14.13;6.13;;;7.70;99.90;;;;;;5055565;28;20116;-44
2021/12/17 05:30:49;;;;;;;13.10;6.20;;;7.80;99.90;;;;;;5068544;28;20056;-45
2021/12/17 05:33:17;;;;;;;13.90;6.05;;;7.80;99.90;;;;;;5066418;28;20110;-47
2021/12/17 05:35:43;;;;;;;13.35;5.88;;;7.80;99.90;;;;;;5048637;28;20128;-44
2021/12/17 05:38:10;;;;;;;12.25;6.05;;;7.80;99.90;;;;;;5049817;28;20051;-49
2021/12/17 05:40:36;;;;;;;13.27;6.47;;;7.80;99.90;;;;;;5048085;28;20499;-48
2021/12/17 05:43:05;;;;;;;13.45;6.07;;;7.80;99.90;;;;;;5049819;28;20691;-45
2021/12/17 05:45:34;;;;;;;16.10;6.30;;;7.80;99.90;;;;;;5048492;28;20485;-44
2021/12/17 05:48:08;;;;;;;16.65;6.20;;;7.80;99.90;;;;;;5053452;28;20402;-51
2021/12/17 05:50:39;;;;;;;12.55;6.28;;;7.80;99.90;;;;;;5069849;28;20123;-49
2021/12/17 05:53:05;;;;;;;13.32;6.80;;;7.80;99.90;;;;;;5054754;28;20131;-50
2021/12/17 05:55:32;;;;;;;15.23;6.95;;;7.80;99.90;;;;;;5068180;28;20048;-47
2021/12/17 05:57:58;;;;;;;14.60;6.97;;;7.80;99.90;;;;;;5033126;28;20056;-49
2021/12/17 06:00:25;;;;;;;15.18;6.75;;;7.80;99.90;;;;;;5031716;28;20045;-50
2021/12/17 06:02:52;;;;;;;15.32;6.88;;;7.80;99.90;;;;;;5063361;28;20117;-47
2021/12/17 06:05:18;;;;;;;16.48;7.38;;;7.80;99.90;;;;;;5058799;28;20056;-48
2021/12/17 06:07:44;;;;;;;16.63;7.18;;;7.70;99.90;;;;;;5068131;28;20052;-50
2021/12/17 06:10:10;;;;;;;18.98;7.38;;;7.80;99.90;;;;;;5051452;28;20370;-49
2021/12/17 06:12:40;;;;;;;15.88;7.72;;;7.70;99.90;;;;;;5065764;28;20126;-48
2021/12/17 06:15:09;;;;;;;16.80;6.72;;;7.70;99.90;;;;;;5056039;28;20147;-47
2021/12/17 06:17:35;;;;;;;19.45;8.55;;;7.70;99.90;;;;;;5051086;28;20541;-48
2021/12/17 06:20:01;;;;;;;19.08;8.02;;;7.70;99.90;;;;;;5068771;28;20040;-48
2021/12/17 06:22:27;;;;;;;19.98;7.72;;;7.70;99.90;;;;;;5066818;28;20051;-46
2021/12/17 06:24:53;;;;;;;17.25;8.35;;;7.60;99.90;;;;;;5050814;28;20036;-47
2021/12/17 06:27:20;;;;;;;19.05;8.02;;;7.60;99.90;;;;;;5047780;28;20385;-51
2021/12/17 06:29:46;;;;;;;16.65;7.65;;;7.50;99.90;;;;;;5068334;28;20032;-50
2021/12/17 06:32:13;;;;;;;23.13;9.05;;;7.50;99.90;;;;;;5066794;28;20537;-50
2021/12/17 06:34:39;;;;;;;21.20;8.50;;;7.50;99.90;;;;;;5069507;28;20113;-50
2021/12/17 06:37:06;;;;;;;18.80;8.23;;;7.50;99.90;;;;;;5071964;28;20041;-48
2021/12/17 06:39:32;;;;;;;20.07;7.80;;;7.50;99.90;;;;;;5059235;28;20067;-48
2021/12/17 06:41:59;;;;;;;22.03;8.13;;;7.40;99.90;;;;;;5071430;28;20378;-46
2021/12/17 06:44:26;;;;;;;23.63;8.48;;;7.40;99.90;;;;;;5073098;28;20287;-48
2021/12/17 06:55:32;;;;;;;21.70;9.63;;;7.40;99.90;;;;;;5069670;28;20049;-49
2021/12/17 07:32:18;;;;;;;23.58;9.63;;;7.60;99.90;;;;;;5060170;28;20048;-48
2021/12/17 07:39:34;;;;;;;22.85;9.02;;;7.70;99.90;;;;;;5068432;28;20052;-49
2021/12/17 07:42:00;;;;;;;29.17;10.20;;;7.60;99.90;;;;;;5068857;28;20036;-47
2021/12/17 07:44:26;;;;;;;27.17;10.52;;;7.70;99.90;;;;;;5067116;28;20047;-51
2021/12/17 07:46:52;;;;;;;32.38;11.85;;;7.70;99.90;;;;;;5066142;28;20148;-49
2021/12/17 07:49:19;;;;;;;26.20;9.75;;;7.70;99.90;;;;;;5067009;28;20094;-49
2021/12/17 07:51:44;;;;;;;25.58;10.05;;;7.70;99.90;;;;;;5061966;28;20056;-48
2021/12/17 07:54:10;;;;;;;24.23;9.27;;;7.70;99.90;;;;;;5047523;28;20047;-50
2021/12/17 07:56:39;;;;;;;24.88;9.00;;;7.70;99.90;;;;;;5069913;28;20059;-49
2021/12/17 07:59:10;;;;;;;27.23;10.00;;;7.70;99.90;;;;;;5057661;28;20056;-47
2021/12/17 08:01:37;;;;;;;25.90;10.00;;;7.70;99.90;;;;;;5061462;28;20067;-51
2021/12/17 08:04:04;;;;;;;20.30;9.13;;;7.70;99.90;;;;;;5089183;28;20106;-50
2021/12/17 08:06:31;;;;;;;28.52;9.90;;;7.70;99.90;;;;;;5060538;28;20048;-51
2021/12/17 08:08:57;;;;;;;32.25;11.15;;;7.70;99.90;;;;;;5055114;28;20078;-50
2021/12/17 08:11:23;;;;;;;23.85;8.82;;;7.60;99.90;;;;;;5052582;28;20080;-48
2021/12/17 08:13:51;;;;;;;24.65;9.55;;;7.60;99.90;;;;;;5045530;28;20059;-51
2021/12/17 08:23:21;;;;;;;26.25;10.40;;;7.70;99.90;;;;;;5059961;28;20059;-50
2021/12/17 08:24:46;;;;;;;29.45;10.48;;;7.70;99.90;;;;;;5050562;28;20055;-50
2021/12/17 08:32:23;;;;;;;37.38;12.07;;;7.80;99.90;;;;;;5052250;28;20128;-48
2021/12/17 08:34:49;;;;;;;31.23;11.60;;;7.80;99.90;;;;;;5058796;28;20331;-47
2021/12/17 08:37:15;;;;;;;29.20;10.63;;;7.80;99.90;;;;;;5070562;28;20567;-49
2021/12/17 08:39:41;;;;;;;34.35;12.63;;;7.80;99.90;;;;;;5054694;28;20117;-48
2021/12/17 08:42:07;;;;;;;27.15;11.40;;;7.80;99.90;;;;;;5049190;28;20043;-47
2021/12/17 08:44:33;;;;;;;26.95;11.45;;;7.90;99.90;;;;;;5055996;28;20103;-46
2021/12/17 08:46:59;;;;;;;31.50;11.40;;;7.90;99.90;;;;;;5068163;28;20530;-48
2021/12/17 08:49:25;;;;;;;25.88;10.98;;;7.90;99.90;;;;;;5065928;28;20040;-47
2021/12/17 08:51:51;;;;;;;26.83;10.98;;;7.90;99.90;;;;;;5038792;28;20569;-49
2021/12/17 08:54:17;;;;;;;30.80;11.20;;;7.90;99.90;;;;;;5068342;28;20102;-46
2021/12/17 08:56:47;;;;;;;28.70;11.30;;;8.00;99.90;;;;;;5067131;28;20045;-48
2021/12/17 08:59:14;;;;;;;29.08;10.95;;;8.00;99.90;;;;;;5067876;28;20051;-47
2021/12/17 09:01:41;;;;;;;26.50;10.82;;;8.00;99.90;;;;;;5067571;28;20102;-46
2021/12/17 09:04:07;;;;;;;25.38;11.38;;;8.00;99.90;;;;;;5068498;28;20402;-48
2021/12/17 09:06:33;;;;;;;28.70;11.20;;;8.00;99.90;;;;;;5070276;28;20113;-46
2021/12/17 09:08:59;;;;;;;25.67;11.25;;;8.10;99.90;;;;;;5032840;28;20044;-46
2021/12/17 09:11:27;;;;;;;25.98;11.05;;;8.10;99.90;;;;;;5050222;28;20125;-46
2021/12/17 09:13:59;;;;;;;26.50;11.80;;;8.10;99.90;;;;;;5063732;28;20239;-47
2021/12/17 09:16:26;;;;;;;25.88;11.02;;;8.10;99.90;;;;;;5077606;28;20559;-47
2021/12/17 09:18:53;;;;;;;23.60;10.53;;;8.10;99.90;;;;;;5048577;28;20079;-47
2021/12/17 09:21:20;;;;;;;27.52;9.93;;;8.20;99.90;;;;;;5050239;28;20044;-46
2021/12/17 09:23:46;;;;;;;30.57;10.63;;;8.20;99.90;;;;;;5070621;28;20451;-46
2021/12/17 09:26:14;;;;;;;22.17;9.90;;;8.20;99.90;;;;;;5050128;28;20033;-48
2021/12/17 09:28:41;;;;;;;26.85;10.10;;;8.20;99.90;;;;;;5063617;28;20040;-47
2021/12/17 09:31:11;;;;;;;31.50;10.32;;;8.20;99.90;;;;;;5061739;28;20041;-48
2021/12/17 09:33:39;;;;;;;22.80;10.40;;;8.30;99.90;;;;;;5069678;28;20127;-46
2021/12/17 09:36:05;;;;;;;24.13;10.10;;;8.30;99.90;;;;;;5051600;28;20049;-47
2021/12/17 09:38:31;;;;;;;24.05;9.27;;;8.30;99.90;;;;;;5065151;28;20596;-51
2021/12/17 09:40:57;;;;;;;25.70;9.38;;;8.30;99.90;;;;;;5047705;28;20041;-46
2021/12/17 09:43:24;;;;;;;24.65;10.02;;;8.40;99.90;;;;;;5049912;28;20530;-47
2021/12/17 09:45:50;;;;;;;25.37;10.03;;;8.40;99.90;;;;;;5047967;28;20045;-46
2021/12/17 09:48:19;;;;;;;23.42;9.43;;;8.40;99.90;;;;;;5049197;28;20039;-46
2021/12/17 09:50:46;;;;;;;26.13;10.02;;;8.40;99.90;;;;;;5049050;28;20053;-46
2021/12/17 09:53:13;;;;;;;26.92;9.65;;;8.40;99.90;;;;;;5049336;28;20562;-48
2021/12/17 09:55:39;;;;;;;24.75;9.73;;;8.50;99.90;;;;;;5056848;28;20111;-49
2021/12/17 09:58:05;;;;;;;29.08;9.35;;;8.40;99.90;;;;;;5031598;28;20044;-47
2021/12/17 10:00:31;;;;;;;21.23;9.30;;;8.50;99.90;;;;;;5039126;28;20155;-48
2021/12/17 10:02:57;;;;;;;25.20;10.00;;;8.50;99.90;;;;;;5034284;28;20045;-48
2021/12/17 10:05:30;;;;;;;24.23;9.00;;;8.50;99.90;;;;;;5058995;28;20044;-48
2021/12/17 10:07:59;;;;;;;23.70;9.57;;;8.50;99.90;;;;;;5081573;28;20045;-47
2021/12/17 10:10:41;;;;;;;26.30;9.50;;;8.50;99.90;;;;;;5036902;28;20087;-46
2021/12/17 10:13:10;;;;;;;22.45;8.52;;;8.60;99.90;;;;;;5042171;28;20087;-47
2021/12/17 10:15:38;;;;;;;23.20;8.88;;;8.60;99.90;;;;;;5060889;28;20085;-47
2021/12/17 10:18:04;;;;;;;23.20;9.00;;;8.60;99.90;;;;;;5062065;28;20041;-47
2021/12/17 10:20:40;;;;;;;22.08;8.13;;;8.60;99.90;;;;;;5055579;28;20123;-46
2021/12/17 10:23:09;;;;;;;21.95;8.00;;;8.60;99.90;;;;;;5063378;28;20047;-46
2021/12/17 10:25:40;;;;;;;19.75;8.18;;;8.60;99.90;;;;;;5055815;28;20194;-47
2021/12/17 10:28:06;;;;;;;21.13;8.27;;;8.70;99.90;;;;;;5058310;28;20052;-46
2021/12/17 10:30:36;;;;;;;19.55;7.10;;;8.70;99.90;;;;;;5051925;28;20041;-47
2021/12/17 10:33:06;;;;;;;14.10;7.00;;;8.80;99.90;;;;;;5034680;28;20041;-47
2021/12/17 10:35:35;;;;;;;16.10;7.20;;;8.80;99.90;;;;;;5052386;28;20444;-49
2021/12/17 10:38:08;;;;;;;15.35;6.35;;;8.80;99.90;;;;;;5054241;28;20061;-47
2021/12/17 10:40:50;;;;;;;13.55;6.32;;;8.90;99.90;;;;;;5052011;28;20049;-46
2021/12/17 10:46:05;;;;;;;11.98;6.65;;;8.90;99.90;;;;;;5054796;28;20079;-47
2021/12/17 10:51:21;;;;;;;15.35;7.25;;;8.90;99.90;;;;;;5053424;28;20131;-48
2021/12/17 10:53:56;;;;;;;10.68;6.18;;;9.00;99.90;;;;;;5069261;28;20271;-46
2021/12/17 10:56:24;;;;;;;9.65;5.35;;;9.00;99.90;;;;;;5073151;28;20040;-47
2021/12/17 10:59:03;;;;;;;11.73;6.13;;;9.00;99.90;;;;;;5073376;28;20042;-48
2021/12/17 11:01:45;;;;;;;16.52;5.45;;;9.00;99.90;;;;;;5041662;28;20400;-47
2021/12/17 11:04:23;;;;;;;12.70;4.18;;;9.10;99.90;;;;;;5072802;28;20057;-48
2021/12/17 11:07:01;;;;;;;9.60;4.93;;;9.10;99.90;;;;;;5073110;28;20426;-47
2021/12/17 11:09:54;;;;;;;8.23;4.38;;;9.00;99.90;;;;;;5073130;28;20033;-48
2021/12/17 11:12:22;;;;;;;8.90;3.78;;;9.10;99.90;;;;;;5069243;28;20041;-48
2021/12/17 11:14:49;;;;;;;9.40;3.70;;;9.00;99.90;;;;;;5072330;28;20040;-47
2021/12/17 11:17:18;;;;;;;7.45;3.22;;;9.10;99.90;;;;;;5070938;28;20370;-47
2021/12/17 11:19:44;;;;;;;7.03;4.05;;;9.00;99.90;;;;;;5071934;28;20103;-50
2021/12/17 11:22:10;;;;;;;5.45;3.03;;;9.10;99.90;;;;;;5066221;28;20059;-47
2021/12/17 11:24:37;;;;;;;8.73;3.70;;;9.10;99.90;;;;;;5067285;28;20044;-47
2021/12/17 11:27:05;;;;;;;7.40;3.75;;;9.10;99.90;;;;;;5053388;28;20099;-46
2021/12/17 11:29:31;;;;;;;5.93;3.13;;;9.10;99.90;;;;;;5064488;28;20052;-46
2021/12/17 11:31:59;;;;;;;5.75;3.20;;;9.10;99.90;;;;;;5071792;28;20527;-47
2021/12/17 11:34:26;;;;;;;5.55;3.05;;;9.10;99.90;;;;;;5071325;28;20498;-46
2021/12/17 11:36:53;;;;;;;7.53;2.97;;;9.10;99.90;;;;;;5072157;28;20040;-47
2021/12/17 11:39:35;;;;;;;5.10;2.58;;;9.10;99.90;;;;;;5071286;28;20498;-47
2021/12/17 11:42:16;;;;;;;5.38;2.60;;;9.10;99.90;;;;;;5069809;28;20173;-46
2021/12/17 11:44:52;;;;;;;8.10;2.63;;;9.10;99.90;;;;;;5053126;28;20047;-47
2021/12/17 11:47:19;;;;;;;5.40;2.40;;;9.10;99.90;;;;;;5071059;28;20098;-46
2021/12/17 11:49:50;;;;;;;7.30;2.70;;;9.10;99.90;;;;;;5069437;28;20487;-47
2021/12/17 11:52:34;;;;;;;6.65;2.47;;;9.10;99.90;;;;;;5070180;28;20099;-48
2021/12/17 11:55:33;;;;;;;8.85;2.53;;;9.10;99.90;;;;;;5071706;28;20033;-46
2021/12/17 11:58:07;;;;;;;4.25;2.03;;;9.10;99.90;;;;;;5087325;28;20102;-47
2021/12/17 12:00:40;;;;;;;4.60;2.55;;;9.10;99.90;;;;;;5052855;28;20044;-47
2021/12/17 12:03:21;;;;;;;4.97;2.88;;;9.10;99.90;;;;;;5053025;28;20438;-47
2021/12/17 12:05:49;;;;;;;6.10;3.42;;;9.10;99.90;;;;;;5061168;28;20518;-47
2021/12/17 12:08:50;;;;;;;6.38;3.40;;;9.10;99.90;;;;;;5071077;28;20048;-47
2021/12/17 12:11:26;;;;;;;6.03;3.45;;;9.10;99.90;;;;;;5042149;28;20235;-47
2021/12/17 12:13:56;;;;;;;8.27;3.53;;;9.10;99.90;;;;;;5071043;28;20111;-47
2021/12/17 12:16:30;;;;;;;7.32;3.50;;;9.10;99.90;;;;;;5071374;28;20355;-47
2021/12/17 12:19:07;;;;;;;7.13;3.35;;;9.10;99.90;;;;;;5070082;28;20055;-48
2021/12/17 12:21:35;;;;;;;7.37;3.63;;;9.10;99.90;;;;;;5069982;28;20037;-48
2021/12/17 12:24:16;;;;;;;10.82;4.18;;;9.10;99.90;;;;;;5064171;28;20287;-47
2021/12/17 12:26:45;;;;;;;11.70;4.03;;;9.20;99.90;;;;;;5065742;28;20098;-47
2021/12/17 12:29:15;;;;;;;7.97;3.85;;;9.10;99.90;;;;;;5070084;28;20451;-48
2021/12/17 12:31:48;;;;;;;6.75;4.07;;;9.20;99.90;;;;;;5069913;28;20195;-47
2021/12/17 12:34:27;;;;;;;8.23;4.07;;;9.20;99.90;;;;;;5061056;28;20473;-47
2021/12/17 12:37:05;;;;;;;7.53;4.85;;;9.20;99.90;;;;;;5067794;28;20142;-47
2021/12/17 12:39:38;;;;;;;10.20;4.80;;;9.20;99.90;;;;;;5062870;28;20049;-47
2021/12/17 12:42:21;;;;;;;11.07;5.25;;;9.20;99.90;;;;;;5062102;28;20049;-48
2021/12/17 12:44:47;;;;;;;7.50;4.60;;;9.20;99.90;;;;;;5065754;28;20045;-50
2021/12/17 12:47:20;;;;;;;9.20;4.50;;;9.20;99.90;;;;;;5043557;28;20055;-47
2021/12/17 12:49:56;;;;;;;8.00;4.63;;;9.20;99.90;;;;;;5073901;28;20041;-47
2021/12/17 12:52:45;;;;;;;7.32;4.13;;;9.20;99.90;;;;;;5062669;28;20478;-45
2021/12/17 12:55:26;;;;;;;7.47;4.20;;;9.20;99.90;;;;;;5067901;28;20516;-46
2021/12/17 12:58:03;;;;;;;7.70;3.90;;;9.20;99.90;;;;;;5055302;28;20045;-46
2021/12/17 13:00:47;;;;;;;7.93;4.82;;;9.20;99.90;;;;;;5064790;28;20136;-47
2021/12/17 13:03:25;;;;;;;10.05;3.80;;;9.20;99.90;;;;;;5058068;28;20032;-46
2021/12/17 13:05:52;;;;;;;7.55;3.97;;;9.20;99.90;;;;;;5066365;28;20077;-46
2021/12/17 13:08:20;;;;;;;8.93;4.95;;;9.20;99.90;;;;;;5069069;28;20075;-46
2021/12/17 13:10:55;;;;;;;10.57;5.13;;;9.20;99.90;;;;;;5070129;28;20049;-47
2021/12/17 13:13:37;;;;;;;7.72;5.40;;;9.20;99.90;;;;;;5070139;28;20455;-48
2021/12/17 13:16:43;;;;;;;7.63;5.05;;;9.20;99.90;;;;;;5060953;28;20175;-46
2021/12/17 13:24:29;;;;;;;7.57;4.50;;;9.20;99.90;;;;;;5048941;28;20045;-46
2021/12/17 13:27:11;;;;;;;8.63;4.55;;;9.20;99.90;;;;;;5048488;28;20052;-49
2021/12/17 13:29:40;;;;;;;6.35;4.70;;;9.20;99.90;;;;;;5054471;28;20037;-49
2021/12/17 13:32:09;;;;;;;7.32;4.72;;;9.20;99.90;;;;;;5060318;28;20390;-46
2021/12/17 13:34:49;;;;;;;8.10;4.93;;;9.20;99.90;;;;;;5062153;28;20127;-49
2021/12/17 13:37:20;;;;;;;6.78;4.32;;;9.20;99.90;;;;;;5047851;28;20049;-46
2021/12/17 13:39:53;;;;;;;7.40;4.22;;;9.20;99.90;;;;;;5065245;28;20578;-45
2021/12/17 13:42:23;;;;;;;7.15;4.63;;;9.20;99.90;;;;;;5057865;28;20467;-44
2021/12/17 13:44:52;;;;;;;8.75;4.75;;;9.20;99.90;;;;;;5047853;28;20041;-45
2021/12/17 13:47:42;;;;;;;6.63;4.30;;;9.20;99.90;;;;;;5049523;28;20116;-45
2021/12/17 13:50:23;;;;;;;8.57;4.57;;;9.20;99.90;;;;;;5052560;28;20502;-47
2021/12/17 13:53:06;;;;;;;8.95;4.18;;;9.20;99.90;;;;;;5032237;28;20037;-47
2021/12/17 13:55:38;;;;;;;7.20;4.53;;;9.20;99.90;;;;;;5051963;28;20072;-46
2021/12/17 13:58:11;;;;;;;11.88;5.20;;;9.20;99.90;;;;;;5049245;28;20525;-45
2021/12/17 14:00:42;;;;;;;7.85;4.72;;;9.20;99.90;;;;;;5049393;28;20617;-47
2021/12/17 14:03:14;;;;;;;5.97;4.55;;;9.20;99.90;;;;;;5059347;28;20359;-47
2021/12/17 14:05:44;;;;;;;8.43;4.43;;;9.20;99.90;;;;;;5071168;28;20057;-49
2021/12/17 14:08:13;;;;;;;7.82;5.05;;;9.20;99.90;;;;;;5064386;28;20498;-49
2021/12/17 14:10:41;;;;;;;7.85;4.30;;;9.20;99.90;;;;;;5060989;28;20047;-45
2021/12/17 14:13:16;;;;;;;7.50;4.72;;;9.10;99.90;;;;;;5048336;28;20052;-46
2021/12/17 14:15:44;;;;;;;8.25;4.55;;;9.10;99.90;;;;;;5065361;28;20563;-46
2021/12/17 14:18:14;;;;;;;;;;;9.20;99.90;;;;;;5064526;28;20068;-45
2021/12/17 14:20:45;;;;;;;7.47;4.65;;;9.10;99.90;;;;;;5092950;28;20370;-45
2021/12/17 14:23:28;;;;;;;7.25;5.07;;;9.10;99.90;;;;;;5065039;28;20032;-46
2021/12/17 14:25:55;;;;;;;8.38;5.13;;;9.10;99.90;;;;;;5066520;28;20486;-45
2021/12/17 14:28:25;;;;;;;9.13;5.20;;;9.10;99.90;;;;;;5064142;28;20058;-44
2021/12/17 14:31:04;;;;;;;10.48;5.03;;;9.10;99.90;;;;;;5092417;28;20102;-47
2021/12/17 14:33:34;;;;;;;8.35;5.07;;;9.10;99.90;;;;;;5060336;28;20051;-45
2021/12/17 14:36:05;;;;;;;7.57;5.15;;;9.10;99.90;;;;;;5064086;28;20418;-45
2021/12/17 14:38:39;;;;;;;9.30;5.38;;;9.10;99.90;;;;;;5049869;28;20116;-45
2021/12/17 14:41:07;;;;;;;8.88;5.38;;;9.10;99.90;;;;;;5061765;28;20041;-45
2021/12/17 14:43:36;;;;;;;;;;;9.00;99.90;;;;;;5066163;28;20032;-45
2021/12/17 14:46:13;;;;;;;;;;;9.10;99.90;;;;;;5061708;28;19921;-46
2021/12/17 14:48:55;;;;;;;10.82;5.50;;;9.00;99.90;;;;;;5089664;28;19916;-45
2021/12/17 14:59:07;;;;;;;10.52;5.57;;;9.00;99.90;;;;;;5054829;28;20048;-46
2021/12/17 15:05:18;;;;;;;11.75;6.20;;;9.00;99.90;;;;;;5065466;28;20092;-48
2021/12/17 15:07:44;;;;;;;10.57;7.32;;;9.00;99.90;;;;;;5065520;28;20184;-45
2021/12/17 15:10:12;;;;;;;12.40;7.55;;;9.00;99.90;;;;;;5049667;28;20132;-47
2021/12/17 15:12:38;;;;;;;10.48;5.97;;;9.00;99.90;;;;;;5051828;28;20040;-47
2021/12/17 15:15:08;;;;;;;9.90;5.80;;;8.90;99.90;;;;;;5064953;28;20040;-45
2021/12/17 15:17:34;;;;;;;10.32;5.82;;;9.00;99.90;;;;;;5063771;28;20174;-46
2021/12/17 15:20:01;;;;;;;9.88;5.60;;;9.00;99.90;;;;;;5058039;28;20479;-46
2021/12/17 15:22:27;;;;;;;8.38;5.18;;;8.90;99.90;;;;;;5051289;28;20037;-47
2021/12/17 15:24:54;;;;;;;9.63;5.35;;;8.90;99.90;;;;;;5042494;28;20123;-46
2021/12/17 15:27:20;;;;;;;9.48;6.07;;;8.90;99.90;;;;;;5067868;28;20040;-46
2021/12/17 15:29:47;;;;;;;13.07;6.65;;;8.90;99.90;;;;;;5053157;28;20043;-48
2021/12/17 15:32:13;;;;;;;11.35;6.13;;;8.90;99.90;;;;;;5067991;28;20066;-47
2021/12/17 15:34:39;;;;;;;9.52;5.82;;;8.90;99.90;;;;;;5067916;28;20079;-45
2021/12/17 15:37:04;;;;;;;12.93;6.32;;;8.90;99.90;;;;;;5067801;28;20456;-44
2021/12/17 15:39:31;;;;;;;11.70;6.05;;;8.90;99.90;;;;;;5051604;28;20036;-44
2021/12/17 15:41:57;;;;;;;10.80;5.78;;;8.80;99.90;;;;;;5043306;28;20044;-44
2021/12/17 15:44:22;;;;;;;13.50;6.97;;;8.80;99.90;;;;;;5049987;28;20037;-47
2021/12/17 15:46:50;;;;;;;14.05;6.88;;;8.80;99.90;;;;;;5052229;28;20114;-44
2021/12/17 15:49:17;;;;;;;10.45;6.25;;;8.80;99.90;;;;;;5051638;28;20036;-44
2021/12/17 15:51:43;;;;;;;13.60;6.73;;;8.80;99.90;;;;;;5069868;28;20167;-45
2021/12/17 15:54:09;;;;;;;13.27;5.55;;;8.70;99.90;;;;;;5068716;28;20040;-45
2021/12/17 15:56:35;;;;;;;13.25;5.20;;;8.70;99.90;;;;;;5064419;28;20041;-45
2021/12/17 15:59:02;;;;;;;16.77;6.15;;;8.70;99.90;;;;;;5068583;28;20105;-46
2021/12/17 16:01:28;;;;;;;12.80;5.40;;;8.60;99.90;;;;;;5041050;28;20052;-45
2021/12/17 16:03:55;;;;;;;11.20;5.18;;;8.60;99.90;;;;;;5064835;28;20048;-48
2021/12/17 16:06:21;;;;;;;14.30;6.07;;;8.60;99.90;;;;;;5065766;28;20110;-48
2021/12/17 16:08:53;;;;;;;11.77;4.70;;;8.50;99.90;;;;;;5066240;28;20040;-46
2021/12/17 16:21:58;;;;;;;4.70;2.83;;;8.30;99.90;;;;;;5094328;28;20045;-47
2021/12/17 16:24:25;;;;;;;6.80;3.05;;;8.20;99.90;;;;;;5070448;28;20137;-47
2021/12/17 16:26:52;;;;;;;9.97;3.70;;;8.20;99.90;;;;;;5069130;28;20048;-47
2021/12/17 16:29:18;;;;;;;9.05;3.20;;;8.20;99.90;;;;;;5068376;28;20429;-46